createdAt,value
2019-01-29T14:03:33.762Z,22.40
2019-01-29T14:04:38.929Z,22.34
2019-01-29T14:09:03.467Z,22.42
2019-01-29T14:11:33.809Z,16.79
2019-01-29T14:14:04.034Z,12.16
2019-01-29T14:16:34.174Z,9.42
2019-01-29T14:19:04.326Z,7.24
2019-01-29T14:21:34.488Z,5.80
2019-01-29T14:24:04.639Z,4.60
2019-01-29T14:26:34.779Z,3.76
2019-01-29T14:29:04.927Z,3.11
2019-01-29T14:31:35.066Z,2.67
2019-01-29T14:34:05.236Z,2.29
2019-01-29T14:36:35.364Z,2.03
2019-01-29T14:39:19.673Z,1.85
2019-01-29T14:41:49.805Z,1.68
2019-01-29T14:44:19.958Z,1.52
2019-01-29T14:46:50.087Z,1.43
2019-01-29T14:49:20.252Z,1.36
2019-01-29T14:51:50.490Z,1.30
2019-01-29T14:54:20.629Z,1.28
2019-01-29T14:56:56.699Z,1.23
2019-01-29T14:59:22.617Z,1.19
2019-01-29T15:01:52.757Z,1.19
2019-01-29T15:04:22.893Z,1.16
2019-01-29T15:06:53.047Z,1.16
2019-01-29T15:09:23.248Z,1.17
2019-01-29T15:11:53.381Z,1.16
2019-01-29T15:14:23.536Z,1.14
2019-01-29T15:16:55.392Z,1.10
2019-01-29T15:19:25.575Z,1.09
2019-01-29T15:21:55.758Z,1.08
2019-01-29T15:24:25.928Z,1.05
2019-01-29T15:26:56.069Z,1.02
2019-01-29T15:29:26.243Z,0.98
2019-01-29T15:31:56.372Z,0.98
2019-01-29T15:34:26.545Z,0.94
2019-01-29T15:36:56.678Z,0.89
2019-01-29T15:39:26.866Z,0.86
2019-01-29T15:41:57.015Z,0.85
2019-01-29T15:44:27.187Z,0.82
2019-01-29T15:46:57.332Z,0.79
2019-01-29T15:49:27.494Z,0.77
2019-01-29T15:51:57.621Z,0.77
2019-01-29T15:54:27.789Z,0.73
2019-01-29T15:56:57.931Z,0.71
2019-01-29T15:59:28.099Z,0.65
2019-01-29T16:01:58.235Z,0.60
2019-01-29T16:47:20.485Z,19.14
2019-01-29T16:49:50.875Z,19.73
2019-01-29T16:53:30.024Z,20.60
2019-01-29T16:56:00.197Z,20.28
2019-01-29T16:58:30.335Z,14.97
2019-01-29T17:01:01.004Z,10.86
2019-01-29T17:03:31.156Z,8.02
2019-01-29T17:06:01.366Z,6.21
2019-01-29T17:08:32.510Z,5.13
2019-01-29T17:11:02.733Z,4.13
2019-01-29T17:13:33.011Z,3.42
2019-01-29T17:16:03.187Z,2.81
2019-01-29T17:18:33.313Z,2.35
2019-01-29T17:21:03.486Z,2.01
2019-01-29T17:23:33.620Z,1.75
2019-01-29T17:26:03.801Z,1.55
2019-01-29T17:28:33.921Z,1.33
2019-01-29T17:31:04.130Z,1.20
2019-01-29T17:33:34.273Z,1.10
2019-01-29T17:36:04.441Z,1.02
2019-01-29T17:38:34.564Z,0.92
2019-01-29T17:41:05.000Z,0.89
2019-01-29T17:43:35.128Z,0.85
2019-01-29T17:46:05.310Z,0.82
2019-01-29T17:48:35.440Z,0.82
2019-01-29T17:51:05.620Z,0.82
2019-01-29T17:53:37.346Z,0.84
2019-01-29T17:56:07.613Z,0.84
2019-01-29T17:58:37.736Z,0.76
2019-01-29T18:01:07.901Z,0.73
2019-01-29T18:03:38.040Z,0.70
2019-01-29T18:06:08.223Z,0.64
2019-01-29T18:08:38.375Z,0.59
2019-01-29T18:11:09.604Z,0.58
2019-01-29T18:13:39.739Z,0.61
2019-01-29T18:16:09.925Z,0.59
2019-01-29T18:18:40.049Z,0.55
2019-01-29T18:21:10.234Z,0.58
2019-01-29T18:23:40.377Z,0.55
2019-01-29T18:26:10.583Z,0.57
2019-01-29T18:28:40.722Z,0.54
2019-01-29T18:31:10.913Z,0.55
2019-01-29T18:33:41.041Z,0.54
2019-01-29T18:36:11.226Z,0.55
2019-01-29T18:38:41.362Z,0.55
2019-01-29T18:41:11.541Z,0.50
2019-01-29T18:43:41.675Z,0.50
2019-01-29T18:46:11.886Z,0.54
2019-01-29T18:48:42.008Z,0.56
2019-01-29T18:51:12.231Z,0.58
2019-01-29T18:53:42.360Z,0.61
2019-01-29T18:56:12.548Z,0.65
2019-01-29T18:58:42.771Z,0.60
2019-01-29T19:01:13.908Z,0.59
2019-01-29T19:03:44.050Z,0.57
2019-01-29T19:06:14.231Z,0.58
2019-01-29T19:08:46.044Z,0.57
2019-01-29T19:11:16.228Z,0.54
2019-01-29T19:13:46.370Z,0.49
2019-01-29T19:16:16.582Z,0.45
2019-01-29T19:18:46.751Z,0.44
2019-01-29T19:21:16.968Z,0.46
2019-01-29T19:23:48.313Z,0.43
2019-01-29T19:26:18.491Z,0.45
2019-01-29T19:28:48.617Z,0.41
2019-01-29T19:31:18.792Z,0.39
2019-01-29T19:33:48.920Z,0.40
2019-01-29T19:36:19.117Z,0.44
2019-01-29T19:38:49.272Z,0.49
2019-01-29T19:41:19.445Z,0.48
2019-01-29T19:43:49.577Z,0.49
2019-01-29T19:46:19.827Z,0.47
2019-01-29T19:48:49.962Z,0.44
2019-01-29T19:51:20.156Z,0.43
2019-01-29T19:53:50.276Z,0.42
2019-01-29T19:56:20.475Z,0.41
2019-01-29T19:58:50.606Z,0.41
2019-01-29T20:01:20.790Z,0.40
2019-01-29T20:03:50.918Z,0.41
2019-01-29T20:06:21.471Z,0.42
2019-01-29T20:08:51.607Z,0.41
2019-01-29T20:11:21.785Z,0.40
2019-01-29T20:13:51.930Z,0.39
2019-01-29T20:16:23.090Z,0.38
2019-01-29T20:18:53.225Z,0.37
2019-01-29T20:21:23.401Z,0.37
2019-01-29T20:23:55.163Z,0.37
2019-01-29T20:26:25.370Z,0.33
2019-01-29T20:28:55.518Z,0.33
2019-01-29T20:31:27.323Z,0.35
2019-01-29T20:33:59.073Z,0.33
2019-01-29T20:36:29.250Z,0.34
2019-01-29T20:39:01.560Z,0.36
2019-01-29T20:41:33.023Z,0.32
2019-01-29T20:44:03.194Z,0.33
2019-01-29T20:46:33.527Z,0.29
2019-01-29T20:49:03.660Z,0.27
2019-01-29T20:51:33.850Z,0.27
2019-01-29T20:54:03.983Z,0.27
2019-01-29T20:56:34.214Z,0.23
2019-01-29T20:59:04.368Z,0.30
2019-01-29T21:01:35.846Z,0.34
2019-01-29T21:04:06.009Z,0.35
2019-01-29T21:06:36.204Z,0.36
2019-01-29T21:09:08.459Z,0.37
2019-01-29T21:11:38.665Z,0.36
2019-01-29T21:14:08.793Z,0.42
2019-01-29T21:16:38.985Z,0.49
2019-01-29T21:19:09.120Z,0.50
2019-01-29T21:21:39.296Z,0.52
2019-01-29T21:24:09.429Z,0.60
2019-01-29T21:26:39.609Z,0.59
2019-01-29T21:29:09.747Z,0.61
2019-01-29T21:31:39.926Z,0.64
2019-01-29T21:34:10.054Z,0.59
2019-01-29T21:36:40.228Z,0.53
2019-01-29T21:39:10.362Z,0.55
2019-01-29T21:41:40.543Z,0.54
2019-01-29T21:44:10.675Z,0.53
2019-01-29T21:46:40.887Z,0.57
2019-01-29T21:49:11.007Z,0.61
2019-01-29T21:51:41.197Z,0.59
2019-01-29T21:54:11.328Z,0.61
2019-01-29T21:56:41.519Z,0.71
2019-01-29T21:59:13.472Z,0.81
2019-01-29T22:01:44.312Z,0.82
2019-01-29T22:04:14.480Z,0.83
2019-01-29T22:06:44.648Z,0.79
2019-01-29T22:09:14.807Z,0.73
2019-01-29T22:11:44.977Z,0.64
2019-01-29T22:14:15.138Z,0.59
2019-01-29T22:16:45.320Z,0.56
2019-01-29T22:19:15.485Z,0.57
2019-01-29T22:21:45.652Z,0.55
2019-01-29T22:24:15.823Z,0.57
2019-01-29T22:26:45.999Z,0.53
2019-01-29T22:29:23.214Z,0.48
2019-01-29T22:31:48.045Z,0.42
2019-01-29T22:34:18.207Z,0.37
2019-01-29T22:36:48.383Z,0.30
2019-01-29T22:39:18.543Z,0.24
2019-01-29T22:41:48.715Z,0.21
2019-01-29T22:44:18.874Z,0.16
2019-01-29T22:46:49.055Z,0.16
2019-01-29T22:49:19.210Z,0.16
2019-01-29T22:51:49.383Z,0.14
2019-01-29T22:54:19.564Z,0.09
2019-01-29T22:56:49.808Z,0.06
2019-01-29T22:59:19.967Z,0.06
2019-01-29T23:01:50.888Z,0.06
2019-01-29T23:04:21.054Z,0.04
2019-01-29T23:06:53.242Z,0.06
2019-01-29T23:09:23.364Z,0.05
2019-01-29T23:11:53.543Z,0.06
2019-01-29T23:14:23.669Z,0.09
2019-01-29T23:16:53.838Z,0.11
2019-01-29T23:19:23.965Z,0.12
2019-01-29T23:21:54.142Z,0.18
2019-01-29T23:24:24.274Z,0.20
2019-01-29T23:26:55.417Z,0.28
2019-01-29T23:29:25.546Z,0.21
2019-01-29T23:31:55.712Z,0.22
2019-01-29T23:34:25.836Z,0.17
2019-01-29T23:36:56.015Z,0.06
2019-01-29T23:39:26.144Z,-0.02
2019-01-29T23:41:56.324Z,-0.08
2019-01-29T23:44:26.454Z,-0.13
2019-01-29T23:46:56.655Z,-0.22
2019-01-29T23:49:26.797Z,-0.33
2019-01-29T23:51:57.062Z,-0.35
2019-01-29T23:54:27.200Z,-0.40
2019-01-29T23:56:57.383Z,-0.44
2019-01-29T23:59:27.542Z,-0.50
